createdAt,value
2022-08-23T00:02:31.691Z,3.00
2022-08-23T00:07:39.092Z,2.25
2022-08-23T00:12:44.228Z,3.10
2022-08-23T00:17:50.551Z,2.50
2022-08-23T00:22:52.357Z,2.97
2022-08-23T00:27:54.127Z,2.88
2022-08-23T00:32:58.039Z,2.70
2022-08-23T00:38:32.262Z,2.60
2022-08-23T00:43:54.640Z,2.75
2022-08-23T00:48:57.604Z,2.22
2022-08-23T00:54:03.416Z,3.13
2022-08-23T00:59:08.064Z,2.80
2022-08-23T01:04:13.328Z,2.60
2022-08-23T01:09:18.978Z,2.70
2022-08-23T01:15:23.233Z,2.38
2022-08-23T01:20:26.904Z,2.42
2022-08-23T01:25:33.402Z,3.00
2022-08-23T01:30:39.006Z,2.47
2022-08-23T01:35:50.035Z,2.70
2022-08-23T01:40:52.291Z,2.67
2022-08-23T01:45:57.186Z,3.10
2022-08-23T01:51:00.755Z,2.92
2022-08-23T01:56:08.466Z,2.80
2022-08-23T02:01:14.485Z,2.50
2022-08-23T02:06:16.430Z,2.80
2022-08-23T02:11:23.549Z,2.40
2022-08-23T02:16:39.864Z,2.70
2022-08-23T02:21:47.197Z,2.95
2022-08-23T02:26:56.745Z,2.50
2022-08-23T02:32:01.977Z,3.03
2022-08-23T02:37:10.505Z,3.00
2022-08-23T02:42:15.034Z,2.70
2022-08-23T02:47:18.923Z,2.60
2022-08-23T02:52:32.690Z,3.22
2022-08-23T02:57:39.583Z,2.95
2022-08-23T03:02:42.412Z,2.92
2022-08-23T03:07:46.512Z,2.90
2022-08-23T03:12:55.093Z,2.83
2022-08-23T03:17:56.820Z,2.90
2022-08-23T03:23:06.421Z,2.88
2022-08-23T03:28:08.849Z,3.30
2022-08-23T03:33:20.893Z,3.50
2022-08-23T03:38:28.484Z,3.00
2022-08-23T03:43:33.115Z,2.83
2022-08-23T03:48:37.806Z,3.20
2022-08-23T03:53:46.552Z,3.10
2022-08-23T03:58:50.173Z,3.15
2022-08-23T04:03:52.001Z,3.00
2022-08-23T04:08:59.390Z,3.00
2022-08-23T04:14:08.233Z,3.00
2022-08-23T04:19:16.055Z,3.35
2022-08-23T04:24:34.842Z,3.65
2022-08-23T04:29:40.075Z,3.22
2022-08-23T04:34:45.673Z,3.50
2022-08-23T04:40:12.044Z,3.55
2022-08-23T04:45:20.102Z,3.83
2022-08-23T04:50:28.026Z,3.22
2022-08-23T04:55:52.204Z,2.88
2022-08-23T05:00:54.665Z,3.40
2022-08-23T05:06:05.081Z,3.30
2022-08-23T05:11:16.009Z,3.17
2022-08-23T05:16:18.168Z,2.67
2022-08-23T05:21:33.706Z,3.38
2022-08-23T05:26:38.046Z,2.70
2022-08-23T05:31:44.216Z,3.20
2022-08-23T05:36:55.623Z,3.20
2022-08-23T05:42:03.740Z,2.88
2022-08-23T05:47:10.491Z,3.40
2022-08-23T05:52:21.428Z,3.00
2022-08-23T05:57:25.960Z,3.08
2022-08-23T06:02:27.726Z,3.00
2022-08-23T06:07:39.039Z,2.85
2022-08-23T06:12:51.503Z,3.10
2022-08-23T06:17:56.582Z,3.00
2022-08-23T06:22:58.988Z,2.97
2022-08-23T06:28:04.502Z,2.72
2022-08-23T06:33:09.159Z,2.83
2022-08-23T06:38:17.608Z,3.05
2022-08-23T06:43:28.031Z,2.83
2022-08-23T06:48:51.006Z,3.00
2022-08-23T06:53:56.590Z,3.03
2022-08-23T06:59:16.531Z,2.55
2022-08-23T07:04:40.408Z,2.78
2022-08-23T07:10:01.482Z,3.00
2022-08-23T07:15:05.002Z,2.88
2022-08-23T07:20:07.462Z,3.08
2022-08-23T07:25:12.788Z,3.13
2022-08-23T07:30:23.568Z,3.10
2022-08-23T07:35:31.118Z,3.00
2022-08-23T07:40:38.837Z,3.30
2022-08-23T07:45:45.950Z,2.70
2022-08-23T07:51:02.271Z,2.80
2022-08-23T07:56:08.399Z,2.45
2022-08-23T08:01:30.103Z,2.58
2022-08-23T08:06:43.970Z,2.92
2022-08-23T08:11:52.517Z,3.00
2022-08-23T08:17:01.355Z,2.30
2022-08-23T08:22:23.275Z,2.45
2022-08-23T08:28:03.563Z,2.90
2022-08-23T08:33:09.242Z,2.92
2022-08-23T08:38:14.749Z,2.45
2022-08-23T08:43:34.259Z,3.10
2022-08-23T08:48:41.513Z,2.97
2022-08-23T08:53:46.243Z,2.75
2022-08-23T08:58:57.875Z,2.30
2022-08-23T09:04:03.348Z,2.47
2022-08-23T09:09:36.914Z,2.63
2022-08-23T09:14:48.135Z,2.45
2022-08-23T09:19:52.977Z,2.00
2022-08-23T09:25:00.713Z,2.50
2022-08-23T09:30:14.572Z,2.63
2022-08-23T09:35:24.320Z,2.53
2022-08-23T09:40:49.274Z,2.40
2022-08-23T09:45:52.289Z,1.90
2022-08-23T09:51:11.215Z,3.30
2022-08-23T09:56:28.794Z,2.50
2022-08-23T10:01:38.748Z,2.60
2022-08-23T10:06:46.801Z,3.63
2022-08-23T10:11:49.136Z,2.30
2022-08-23T10:17:15.829Z,3.20
2022-08-23T10:22:30.890Z,2.50
2022-08-23T10:28:21.846Z,2.35
2022-08-23T10:33:33.809Z,2.10
2022-08-23T10:38:47.201Z,2.08
2022-08-23T10:44:04.817Z,2.00
2022-08-23T10:49:08.067Z,1.90
2022-08-23T10:54:46.353Z,1.67
2022-08-23T10:59:52.896Z,2.22
2022-08-23T11:05:19.256Z,2.08
2022-08-23T11:10:55.906Z,1.95
2022-08-23T11:16:29.572Z,2.00
2022-08-23T11:21:47.204Z,1.65
2022-08-23T11:26:52.101Z,1.80
2022-08-23T11:32:20.103Z,2.05
2022-08-23T11:37:29.992Z,1.85
2022-08-23T11:42:38.227Z,1.63
2022-08-23T11:47:44.600Z,1.90
2022-08-23T11:52:47.684Z,1.92
2022-08-23T11:57:57.137Z,2.10
2022-08-23T12:03:03.301Z,1.88
2022-08-23T12:08:08.195Z,1.70
2022-08-23T12:13:19.605Z,1.83
2022-08-23T12:18:25.334Z,2.25
2022-08-23T12:23:30.866Z,2.17
2022-08-23T12:28:43.773Z,2.03
2022-08-23T12:33:53.865Z,1.98
2022-08-23T12:38:58.021Z,2.38
2022-08-23T12:44:08.766Z,1.73
2022-08-23T12:49:25.849Z,1.45
2022-08-23T12:54:57.741Z,1.90
2022-08-23T13:00:21.233Z,1.63
2022-08-23T13:05:45.948Z,1.80
2022-08-23T13:10:48.322Z,1.73
2022-08-23T13:15:52.512Z,1.85
2022-08-23T13:21:23.057Z,1.58
2022-08-23T13:26:42.513Z,1.80
2022-08-23T13:31:52.394Z,1.60
2022-08-23T13:36:58.802Z,1.65
2022-08-23T13:42:07.651Z,1.60
2022-08-23T13:47:22.385Z,1.45
2022-08-23T13:57:51.129Z,1.60
2022-08-23T14:02:53.192Z,1.58
2022-08-23T14:07:56.554Z,1.50
2022-08-23T14:13:02.215Z,2.28
2022-08-23T14:18:04.579Z,1.75
2022-08-23T14:23:12.244Z,1.40
2022-08-23T14:28:14.381Z,1.55
2022-08-23T14:33:21.648Z,1.83
2022-08-23T14:38:28.169Z,1.50
2022-08-23T14:43:30.565Z,1.35
2022-08-23T14:48:36.923Z,1.40
2022-08-23T14:53:38.816Z,1.23
2022-08-23T14:58:41.895Z,1.25
2022-08-23T15:03:43.721Z,1.50
2022-08-23T15:08:53.868Z,1.55
2022-08-23T15:13:56.794Z,1.50
2022-08-23T15:19:01.744Z,1.40
2022-08-23T15:24:04.627Z,1.40
2022-08-23T15:29:07.545Z,1.42
2022-08-23T15:34:12.694Z,1.80
2022-08-23T15:39:19.403Z,1.40
2022-08-23T15:44:21.517Z,1.23
2022-08-23T15:49:26.369Z,1.30
2022-08-23T15:54:32.854Z,1.80
2022-08-23T15:59:37.657Z,2.08
2022-08-23T16:04:44.241Z,1.50
2022-08-23T16:09:48.393Z,1.48
2022-08-23T16:14:52.559Z,1.30
2022-08-23T16:19:56.919Z,1.30
2022-08-23T16:25:01.716Z,1.15
2022-08-23T16:30:06.079Z,1.20
2022-08-23T16:35:14.920Z,1.23
2022-08-23T16:40:16.811Z,1.10
2022-08-23T16:45:26.034Z,1.20
2022-08-23T16:50:32.728Z,1.23
2022-08-23T16:55:35.421Z,1.40
2022-08-23T17:00:37.400Z,1.33
2022-08-23T17:05:44.230Z,1.67
2022-08-23T17:10:49.435Z,1.33
2022-08-23T17:15:53.441Z,1.10
2022-08-23T17:21:03.043Z,1.40
2022-08-23T17:26:04.900Z,1.30
2022-08-23T17:31:06.691Z,2.13
2022-08-23T17:36:31.162Z,1.10
2022-08-23T17:41:40.956Z,1.10
2022-08-23T17:47:02.967Z,1.20
2022-08-23T17:52:12.177Z,0.98
2022-08-23T17:57:16.706Z,1.02
2022-08-23T18:02:18.679Z,1.20
2022-08-23T18:07:22.514Z,1.35
2022-08-23T18:12:31.308Z,1.30
2022-08-23T18:17:38.773Z,1.30
2022-08-23T18:22:47.582Z,1.27
2022-08-23T18:28:07.065Z,1.10
2022-08-23T18:33:12.934Z,1.40
2022-08-23T18:38:20.692Z,1.42
2022-08-23T18:43:26.972Z,1.10
2022-08-23T18:48:53.538Z,1.10
2022-08-23T18:53:55.920Z,1.40
2022-08-23T18:59:01.835Z,1.17
2022-08-23T19:04:05.220Z,1.02
2022-08-23T19:09:08.533Z,1.20
2022-08-23T19:14:19.386Z,1.10
2022-08-23T19:19:23.044Z,1.27
2022-08-23T19:24:25.170Z,1.08
2022-08-23T19:29:31.960Z,1.20
2022-08-23T19:34:34.563Z,1.15
2022-08-23T19:39:36.887Z,1.30
2022-08-23T19:44:43.897Z,1.05
2022-08-23T19:49:48.479Z,1.20
2022-08-23T19:54:53.196Z,1.17
2022-08-23T20:00:00.684Z,1.17
2022-08-23T20:05:06.748Z,1.10
2022-08-23T20:10:14.210Z,1.60
2022-08-23T20:15:18.415Z,1.23
2022-08-23T20:20:20.407Z,1.30
2022-08-23T20:25:24.496Z,0.98
2022-08-23T20:30:26.349Z,1.30
2022-08-23T20:35:31.627Z,1.23
2022-08-23T20:40:37.860Z,1.50
2022-08-23T20:45:41.479Z,1.60
2022-08-23T20:50:47.926Z,1.25
2022-08-23T20:55:52.130Z,1.13
2022-08-23T21:00:56.530Z,1.33
2022-08-23T21:06:04.029Z,1.30
2022-08-23T21:11:06.095Z,1.60
2022-08-23T21:16:08.210Z,1.20
2022-08-23T21:21:10.209Z,1.20
2022-08-23T21:26:11.914Z,1.70
2022-08-23T21:31:19.547Z,1.45
2022-08-23T21:36:25.248Z,1.25
2022-08-23T21:41:36.977Z,1.42
2022-08-23T21:46:41.648Z,1.95
2022-08-23T21:51:45.622Z,1.45
2022-08-23T21:56:53.093Z,1.67
2022-08-23T22:01:58.300Z,1.38
2022-08-23T22:07:00.757Z,1.35
2022-08-23T22:12:07.651Z,1.38
2022-08-23T22:17:12.099Z,1.00
2022-08-23T22:22:14.979Z,1.48
2022-08-23T22:27:22.481Z,1.25
2022-08-23T22:32:27.330Z,1.25
2022-08-23T22:37:34.648Z,1.63
2022-08-23T22:42:40.520Z,1.33
2022-08-23T22:47:42.234Z,1.40
2022-08-23T22:52:43.997Z,1.33
2022-08-23T22:57:47.995Z,1.30
2022-08-23T23:02:54.839Z,1.25
2022-08-23T23:08:17.746Z,1.00
2022-08-23T23:13:21.749Z,1.10
2022-08-23T23:18:26.833Z,1.50
2022-08-23T23:23:32.006Z,1.33
2022-08-23T23:28:41.674Z,1.38
2022-08-23T23:33:43.338Z,1.10
2022-08-23T23:38:47.483Z,1.40
2022-08-23T23:43:49.381Z,1.40
2022-08-23T23:48:54.660Z,1.30
2022-08-23T23:53:57.760Z,1.65
2022-08-23T23:59:00.820Z,1.48
